Terminal Aerodrome Forecast
Issued by NWS Omaha/Valley, NE

Home | Current Version | Previous Version | Text Only | Print | Product List | Glossary On
Versions: 1 2 3 4 5 6 7 8 9 10 11 12 13 14
000
FTUS43 KOAX 301120
TAFLNK
TAF
KLNK 301120Z 3012/3112 32010KT P6SM SKC
     FM301600 33020G28KT P6SM SKC
     FM310100 35013G20KT P6SM SCT020=

USA.gov is the U.S. government's official web portal to all federal, state and local government web resources and services.